createdAt,value
2022-10-01T00:00:38.997Z,51.111378
2022-10-01T00:01:38.979Z,51.111408
2022-10-01T00:02:39.142Z,51.111408
2022-10-01T00:03:38.979Z,51.111374
2022-10-01T00:04:38.954Z,51.111332
2022-10-01T00:05:39.058Z,51.111343
2022-10-01T00:06:39.019Z,51.111378
2022-10-01T00:07:39.113Z,51.111397
2022-10-01T00:08:39.010Z,51.111385
2022-10-01T00:09:39.030Z,51.111435
2022-10-01T00:10:38.992Z,51.111427
2022-10-01T00:11:39.097Z,51.111412
2022-10-01T00:12:39.004Z,51.111305
2022-10-01T00:13:38.960Z,51.111305
2022-10-01T00:14:39.050Z,51.111290
2022-10-01T00:15:39.047Z,51.111290
2022-10-01T00:16:39.170Z,51.111244
2022-10-01T00:17:38.959Z,51.111286
2022-10-01T00:18:38.852Z,51.111317
2022-10-01T00:19:38.857Z,51.111324
2022-10-01T00:20:38.981Z,51.111233
2022-10-01T00:21:38.858Z,51.111263
2022-10-01T00:22:38.890Z,51.111279
2022-10-01T00:23:38.827Z,51.111267
2022-10-01T00:24:38.908Z,51.111275
2022-10-01T00:25:38.884Z,51.111301
2022-10-01T00:26:38.862Z,51.111317
2022-10-01T00:27:38.928Z,51.111263
2022-10-01T00:28:38.875Z,51.111298
2022-10-01T00:29:38.901Z,51.111305
2022-10-01T00:30:40.523Z,51.111313
2022-10-01T00:31:40.086Z,51.111347
2022-10-01T00:32:38.847Z,51.111298
2022-10-01T00:33:38.931Z,51.111340
2022-10-01T00:34:38.828Z,51.111359
2022-10-01T00:35:38.829Z,51.111343
2022-10-01T00:36:38.823Z,51.111347
2022-10-01T00:37:38.805Z,51.111336
2022-10-01T00:38:38.797Z,51.111290
2022-10-01T00:39:38.696Z,51.111313
2022-10-01T00:40:38.800Z,51.111343
2022-10-01T00:41:38.821Z,51.111313
2022-10-01T00:42:38.786Z,51.111298
2022-10-01T00:43:38.964Z,51.111290
2022-10-01T00:44:38.738Z,51.111294
2022-10-01T00:45:38.808Z,51.111225
2022-10-01T00:46:38.832Z,51.111309
2022-10-01T00:47:38.744Z,51.111286
2022-10-01T00:48:38.733Z,51.111298
2022-10-01T00:49:38.786Z,51.111298
2022-10-01T00:50:38.737Z,51.111298
2022-10-01T00:51:38.707Z,51.111259
2022-10-01T00:52:38.679Z,51.111259
2022-10-01T00:53:38.598Z,51.111229
2022-10-01T00:54:38.662Z,51.111248
2022-10-01T00:55:38.629Z,51.111267
2022-10-01T00:56:38.577Z,51.111279
2022-10-01T00:57:38.600Z,51.111263
2022-10-01T00:58:38.582Z,51.111256
2022-10-01T00:59:39.868Z,51.111275
2022-10-01T01:00:38.699Z,51.111275
2022-10-01T01:01:38.763Z,51.111267
2022-10-01T01:02:38.801Z,51.111271
2022-10-01T01:03:38.638Z,51.111286
2022-10-01T01:04:38.637Z,51.111309
2022-10-01T01:05:38.674Z,51.111309
2022-10-01T01:06:38.648Z,51.111305
2022-10-01T01:07:38.639Z,51.111301
2022-10-01T01:08:38.636Z,51.111294
2022-10-01T01:09:39.667Z,51.111301
2022-10-01T01:10:38.582Z,51.111286
2022-10-01T01:11:38.549Z,51.111282
2022-10-01T01:12:38.576Z,51.111290
2022-10-01T01:13:38.470Z,51.111286
2022-10-01T01:14:38.451Z,51.111294
2022-10-01T01:15:38.521Z,51.111294
2022-10-01T01:16:38.486Z,51.111290
2022-10-01T01:17:38.491Z,51.111275
2022-10-01T01:18:38.430Z,51.111259
2022-10-01T01:19:38.464Z,51.111271
2022-10-01T01:20:38.453Z,51.111301
2022-10-01T01:21:38.491Z,51.111305
2022-10-01T01:22:38.514Z,51.111324
2022-10-01T01:23:38.507Z,51.111301
2022-10-01T01:24:38.464Z,51.111290
2022-10-01T01:25:38.489Z,51.111290
2022-10-01T01:26:38.534Z,51.111286
2022-10-01T01:27:38.592Z,51.111294
2022-10-01T01:28:38.520Z,51.111294
2022-10-01T01:29:38.502Z,51.111282
2022-10-01T01:30:38.465Z,51.111286
2022-10-01T01:31:38.641Z,51.111301
2022-10-01T01:32:38.504Z,51.111290
2022-10-01T01:33:38.411Z,51.111286
2022-10-01T01:34:38.406Z,51.111275
2022-10-01T01:35:38.313Z,51.111298
2022-10-01T01:36:38.324Z,51.111298
2022-10-01T01:37:38.412Z,51.111301
2022-10-01T01:38:38.360Z,51.111313
2022-10-01T01:39:38.364Z,51.111301
2022-10-01T01:40:38.378Z,51.111313
2022-10-01T01:41:38.393Z,51.111317
2022-10-01T01:42:38.362Z,51.111290
2022-10-01T01:43:38.388Z,51.111275
2022-10-01T01:44:38.406Z,51.111290
2022-10-01T01:45:38.400Z,51.111305
2022-10-01T01:46:38.362Z,51.111301
2022-10-01T01:47:38.333Z,51.111282
2022-10-01T01:48:38.379Z,51.111301
2022-10-01T01:49:38.371Z,51.111305
2022-10-01T01:50:38.352Z,51.111309
2022-10-01T01:51:38.223Z,51.111317
2022-10-01T01:52:38.182Z,51.111301
2022-10-01T01:53:38.304Z,51.111282
2022-10-01T01:54:38.209Z,51.111305
2022-10-01T01:55:38.247Z,51.111271
2022-10-01T01:56:38.212Z,51.111271
2022-10-01T01:57:38.286Z,51.111290
2022-10-01T01:58:38.241Z,51.111313
2022-10-01T01:59:38.280Z,51.111324
2022-10-01T02:00:38.243Z,51.111332
2022-10-01T02:01:38.567Z,51.111313
2022-10-01T02:02:38.293Z,51.111275
2022-10-01T02:03:38.275Z,51.111309
2022-10-01T02:04:38.205Z,51.111320
2022-10-01T02:05:38.605Z,51.111275
2022-10-01T02:06:38.203Z,51.111263
2022-10-01T02:07:38.148Z,51.111305
2022-10-01T02:08:38.189Z,51.111313
2022-10-01T02:09:38.094Z,51.111290
2022-10-01T02:10:38.113Z,51.111237
2022-10-01T02:11:38.202Z,51.111294
2022-10-01T02:12:38.099Z,51.111298
2022-10-01T02:13:39.200Z,51.111282
2022-10-01T02:14:38.108Z,51.111290
2022-10-01T02:15:38.181Z,51.111317
2022-10-01T02:16:38.110Z,51.111263
2022-10-01T02:17:38.195Z,51.111286
2022-10-01T02:18:38.169Z,51.111263
2022-10-01T02:19:38.061Z,51.111259
2022-10-01T02:20:38.089Z,51.111244
2022-10-01T02:21:38.067Z,51.111286
2022-10-01T02:22:38.069Z,51.111290
2022-10-01T02:23:38.067Z,51.111290
2022-10-01T02:24:38.068Z,51.111252
2022-10-01T02:25:38.006Z,51.111263
2022-10-01T02:26:37.999Z,51.111275
2022-10-01T02:27:37.968Z,51.111263
2022-10-01T02:28:38.020Z,51.111252
2022-10-01T02:29:37.978Z,51.111256
2022-10-01T02:30:37.990Z,51.111279
2022-10-01T02:31:38.575Z,51.111271
2022-10-01T02:32:38.002Z,51.111225
2022-10-01T02:33:38.006Z,51.111240
2022-10-01T02:34:38.037Z,51.111256
2022-10-01T02:35:37.959Z,51.111267
2022-10-01T02:36:38.028Z,51.111240
2022-10-01T02:37:37.992Z,51.111244
2022-10-01T02:38:38.026Z,51.111206
2022-10-01T02:39:37.977Z,51.111229
2022-10-01T02:40:37.945Z,51.111313
2022-10-01T02:41:37.927Z,51.111279
2022-10-01T02:42:37.972Z,51.111286
2022-10-01T02:43:42.608Z,51.111286
2022-10-01T02:44:39.970Z,51.111233
2022-10-01T02:45:37.892Z,51.111202
2022-10-01T02:46:37.843Z,51.111217
2022-10-01T02:47:37.897Z,51.111252
2022-10-01T02:48:37.908Z,51.111221
2022-10-01T02:49:37.799Z,51.111221
2022-10-01T02:50:37.834Z,51.111176
2022-10-01T02:51:37.842Z,51.111225
2022-10-01T02:52:37.812Z,51.111191
2022-10-01T02:53:37.871Z,51.111225
2022-10-01T02:54:37.896Z,51.111229
2022-10-01T02:55:37.936Z,51.111172
2022-10-01T02:56:45.947Z,51.111191
2022-10-01T02:57:38.778Z,51.111233
2022-10-01T02:58:37.860Z,51.111237
2022-10-01T02:59:37.905Z,51.111229
2022-10-01T03:00:37.852Z,51.111210
2022-10-01T03:01:38.123Z,51.111153
2022-10-01T03:02:37.847Z,51.111187
2022-10-01T03:03:37.857Z,51.111191
2022-10-01T03:04:37.812Z,51.111210
2022-10-01T03:05:37.741Z,51.111233
2022-10-01T03:06:37.691Z,51.111252
2022-10-01T03:07:37.680Z,51.111263
2022-10-01T03:08:37.762Z,51.111217
2022-10-01T03:09:37.674Z,51.111275
2022-10-01T03:10:37.750Z,51.111294
2022-10-01T03:11:37.663Z,51.111301
2022-10-01T03:12:38.655Z,51.111252
2022-10-01T03:13:37.679Z,51.111198
2022-10-01T03:14:37.708Z,51.111229
2022-10-01T03:15:37.846Z,51.111237
2022-10-01T03:16:37.677Z,51.111244
2022-10-01T03:17:37.793Z,51.111233
2022-10-01T03:18:37.699Z,51.111198
2022-10-01T03:19:37.679Z,51.111267
2022-10-01T03:20:37.713Z,51.111248
2022-10-01T03:21:37.677Z,51.111252
2022-10-01T03:22:37.729Z,51.111263
2022-10-01T03:23:37.647Z,51.111275
2022-10-01T03:24:37.709Z,51.111256
2022-10-01T03:25:37.616Z,51.111263
2022-10-01T03:26:37.691Z,51.111256
2022-10-01T03:27:37.563Z,51.111240
2022-10-01T03:28:37.531Z,51.111221
2022-10-01T03:29:37.567Z,51.111305
2022-10-01T03:30:37.535Z,51.111385
2022-10-01T03:31:37.885Z,51.111382
2022-10-01T03:32:37.543Z,51.111385
2022-10-01T03:33:37.494Z,51.111332
2022-10-01T03:34:37.465Z,51.111271
2022-10-01T03:35:37.596Z,51.111248
2022-10-01T03:36:37.550Z,51.111187
2022-10-01T03:37:37.609Z,51.111229
2022-10-01T03:38:37.547Z,51.111217
2022-10-01T03:39:37.534Z,51.111229
2022-10-01T03:40:37.520Z,51.111275
2022-10-01T03:41:37.567Z,51.111259
2022-10-01T03:42:37.629Z,51.111233
2022-10-01T03:43:37.539Z,51.111240
2022-10-01T03:44:37.508Z,51.111248
2022-10-01T03:45:37.579Z,51.111233
2022-10-01T03:46:37.397Z,51.111347
2022-10-01T03:47:37.390Z,51.111332
2022-10-01T03:48:37.432Z,51.111298
2022-10-01T03:49:37.476Z,51.111244
2022-10-01T03:50:37.416Z,51.111275
2022-10-01T03:51:37.746Z,51.111240
2022-10-01T03:52:37.372Z,51.111252
2022-10-01T03:53:37.487Z,51.111248
2022-10-01T03:54:37.408Z,51.111240
2022-10-01T03:55:37.398Z,51.111244
2022-10-01T03:56:37.418Z,51.111221
2022-10-01T03:57:37.391Z,51.111233
2022-10-01T03:58:37.426Z,51.111229
2022-10-01T03:59:37.429Z,51.111233
2022-10-01T04:00:37.423Z,51.111252
2022-10-01T04:01:37.810Z,51.111263
2022-10-01T04:02:37.515Z,51.111263
2022-10-01T04:03:37.257Z,51.111240
2022-10-01T04:04:37.287Z,51.111252
2022-10-01T04:05:37.259Z,51.111271
2022-10-01T04:06:37.255Z,51.111237
2022-10-01T04:07:37.276Z,51.111263
2022-10-01T04:08:37.248Z,51.111214
2022-10-01T04:09:37.298Z,51.111221
2022-10-01T04:10:37.246Z,51.111187
2022-10-01T04:11:37.454Z,51.111191
2022-10-01T04:12:37.200Z,51.111172
2022-10-01T04:13:37.323Z,51.111225
2022-10-01T04:14:37.283Z,51.111244
2022-10-01T04:15:37.697Z,51.111263
2022-10-01T04:16:37.357Z,51.111259
2022-10-01T04:17:37.261Z,51.111271
2022-10-01T04:18:37.305Z,51.111275
2022-10-01T04:19:37.316Z,51.111248
2022-10-01T04:20:37.307Z,51.111259
2022-10-01T04:21:37.671Z,51.111286
2022-10-01T04:22:58.246Z,51.111259
2022-10-01T04:23:37.131Z,51.111263
2022-10-01T04:24:38.181Z,51.111271
2022-10-01T04:25:37.232Z,51.111256
2022-10-01T04:26:37.142Z,51.111271
2022-10-01T04:27:37.193Z,51.111282
2022-10-01T04:28:37.267Z,51.111271
2022-10-01T04:29:40.204Z,51.111256
2022-10-01T04:30:38.151Z,51.111313
2022-10-01T04:31:37.454Z,51.111290
2022-10-01T04:32:37.070Z,51.111279
2022-10-01T04:33:37.155Z,51.111279
2022-10-01T04:34:37.068Z,51.111298
2022-10-01T04:35:37.068Z,51.111256
2022-10-01T04:36:37.027Z,51.111256
2022-10-01T04:37:37.036Z,51.111256
2022-10-01T04:38:37.066Z,51.111267
2022-10-01T04:39:37.085Z,51.111271
2022-10-01T04:40:37.113Z,51.111267
2022-10-01T04:41:37.381Z,51.111259
2022-10-01T04:42:37.129Z,51.111267
2022-10-01T04:43:37.093Z,51.111275
2022-10-01T04:44:36.960Z,51.111271
2022-10-01T04:45:37.161Z,51.111271
2022-10-01T04:46:37.102Z,51.111279
2022-10-01T04:47:37.771Z,51.111271
2022-10-01T04:48:38.075Z,51.111267
2022-10-01T04:49:37.115Z,51.111263
2022-10-01T04:50:36.923Z,51.111267
2022-10-01T04:51:37.273Z,51.111271
2022-10-01T04:52:37.108Z,51.111279
2022-10-01T04:53:36.916Z,51.111259
2022-10-01T04:54:37.000Z,51.111290
2022-10-01T04:56:14.110Z,51.111267
2022-10-01T04:56:37.879Z,51.111263
2022-10-01T04:57:37.026Z,51.111271
2022-10-01T04:58:36.868Z,51.111256
2022-10-01T04:59:36.906Z,51.111275
2022-10-01T05:00:36.915Z,51.111298
2022-10-01T05:01:37.428Z,51.111290
2022-10-01T05:02:36.887Z,51.111279
2022-10-01T05:03:36.848Z,51.111282
2022-10-01T05:04:36.834Z,51.111267
2022-10-01T05:05:36.846Z,51.111298
2022-10-01T05:06:36.806Z,51.111294
2022-10-01T05:07:36.937Z,51.111305
2022-10-01T05:08:36.885Z,51.111355
2022-10-01T05:09:36.931Z,51.111336
2022-10-01T05:10:36.943Z,51.111305
2022-10-01T05:11:37.033Z,51.111340
2022-10-01T05:12:36.882Z,51.111328
2022-10-01T05:13:36.925Z,51.111309
2022-10-01T05:14:36.846Z,51.111351
2022-10-01T05:15:36.995Z,51.111313
2022-10-01T05:16:36.841Z,51.111317
2022-10-01T05:17:36.747Z,51.111294
2022-10-01T05:18:37.009Z,51.111298
2022-10-01T05:19:36.725Z,51.111351
2022-10-01T05:20:36.760Z,51.111332
2022-10-01T05:21:37.237Z,51.111359
2022-10-01T05:22:36.712Z,51.111320
2022-10-01T05:23:36.705Z,51.111309
2022-10-01T05:24:36.682Z,51.111279
2022-10-01T05:25:36.679Z,51.111332
2022-10-01T05:26:36.707Z,51.111317
2022-10-01T05:27:36.665Z,51.111401
2022-10-01T05:28:36.731Z,51.111408
2022-10-01T05:29:36.665Z,51.111374
2022-10-01T05:30:36.843Z,51.111366
2022-10-01T05:31:37.111Z,51.111343
2022-10-01T05:32:36.641Z,51.111374
2022-10-01T05:33:36.770Z,51.111332
2022-10-01T05:34:36.764Z,51.111351
2022-10-01T05:35:36.630Z,51.111279
2022-10-01T05:36:36.726Z,51.111294
2022-10-01T05:37:36.737Z,51.111183
2022-10-01T05:38:36.599Z,51.111084
2022-10-01T05:39:36.684Z,51.111115
2022-10-01T05:40:36.604Z,51.111164
2022-10-01T05:41:36.873Z,51.111259
2022-10-01T05:42:36.604Z,51.111301
2022-10-01T05:43:36.573Z,51.111248
2022-10-01T05:44:36.533Z,51.111427
2022-10-01T05:45:36.559Z,51.111385
2022-10-01T05:46:36.536Z,51.111263
2022-10-01T05:47:36.520Z,51.111282
2022-10-01T05:48:36.556Z,51.111313
2022-10-01T05:49:36.529Z,51.111313
2022-10-01T05:50:36.589Z,51.111351
2022-10-01T05:51:36.850Z,51.111301
2022-10-01T05:52:36.561Z,51.111370
2022-10-01T05:53:36.630Z,51.111332
2022-10-01T05:54:36.505Z,51.111332
2022-10-01T05:55:36.579Z,51.111317
2022-10-01T05:56:36.551Z,51.111256
2022-10-01T05:57:36.449Z,51.111240
2022-10-01T05:58:36.544Z,51.111233
2022-10-01T05:59:36.578Z,51.111256
2022-10-01T06:00:36.514Z,51.111420
2022-10-01T06:01:36.876Z,51.111294
2022-10-01T06:02:36.646Z,51.111351
2022-10-01T06:03:36.483Z,51.111275
2022-10-01T06:04:41.025Z,51.111427
2022-10-01T06:05:37.381Z,51.111408
2022-10-01T06:06:36.385Z,51.111435
2022-10-01T06:07:36.377Z,51.111313
2022-10-01T06:08:36.487Z,51.111317
2022-10-01T06:09:36.365Z,51.111374
2022-10-01T06:10:36.548Z,51.111317
2022-10-01T06:11:36.841Z,51.111313
2022-10-01T06:12:36.358Z,51.111290
2022-10-01T06:13:36.439Z,51.111164
2022-10-01T06:14:36.444Z,51.111057
2022-10-01T06:15:36.381Z,51.111134
2022-10-01T06:16:36.443Z,51.111183
2022-10-01T06:17:36.387Z,51.111542
2022-10-01T06:18:36.287Z,51.111450
2022-10-01T06:19:36.389Z,51.111351
2022-10-01T06:20:36.447Z,51.111378
2022-10-01T06:21:36.742Z,51.111336
2022-10-01T06:22:36.461Z,51.111305
2022-10-01T06:23:36.426Z,51.111259
2022-10-01T06:24:36.261Z,51.111294
2022-10-01T06:25:36.290Z,51.111324
2022-10-01T06:26:36.650Z,51.111385
2022-10-01T06:27:36.226Z,51.111382
2022-10-01T06:28:37.397Z,51.111382
2022-10-01T06:29:36.215Z,51.111366
2022-10-01T06:30:36.256Z,51.111336
2022-10-01T06:31:36.706Z,51.111347
2022-10-01T06:32:36.285Z,51.111347
2022-10-01T06:33:36.225Z,51.111233
2022-10-01T06:34:36.345Z,51.111271
2022-10-01T06:35:36.288Z,51.111286
2022-10-01T06:36:36.162Z,51.111286
2022-10-01T06:37:36.290Z,51.111282
2022-10-01T06:38:36.251Z,51.111279
2022-10-01T06:39:36.173Z,51.111290
2022-10-01T06:40:36.308Z,51.111290
2022-10-01T06:41:36.574Z,51.111298
2022-10-01T06:42:36.199Z,51.111294
2022-10-01T06:43:36.250Z,51.111286
2022-10-01T06:44:36.198Z,51.111294
2022-10-01T06:45:36.272Z,51.111263
2022-10-01T06:46:36.207Z,51.111271
2022-10-01T06:47:36.122Z,51.111267
2022-10-01T06:48:36.139Z,51.111279
2022-10-01T06:49:36.118Z,51.111275
2022-10-01T06:50:36.154Z,51.111282
2022-10-01T06:51:36.408Z,51.111263
2022-10-01T06:52:36.080Z,51.111275
2022-10-01T06:53:36.114Z,51.111271
2022-10-01T06:54:36.127Z,51.111275
2022-10-01T06:55:36.165Z,51.111275
2022-10-01T06:56:37.130Z,51.111267
2022-10-01T06:57:36.056Z,51.111271
2022-10-01T06:58:36.130Z,51.111282
2022-10-01T06:59:36.219Z,51.111279
2022-10-01T07:00:36.009Z,51.111290
2022-10-01T07:01:36.493Z,51.111286
2022-10-01T07:02:36.149Z,51.111294
2022-10-01T07:03:35.999Z,51.111294
2022-10-01T07:04:36.136Z,51.111301
2022-10-01T07:05:36.036Z,51.111294
2022-10-01T07:06:36.047Z,51.111286
2022-10-01T07:07:36.049Z,51.111271
2022-10-01T07:08:36.034Z,51.111263
2022-10-01T07:09:35.990Z,51.111279
2022-10-01T07:10:36.048Z,51.111290
2022-10-01T07:11:36.317Z,51.111275
2022-10-01T07:12:35.969Z,51.111282
2022-10-01T07:13:35.922Z,51.111313
2022-10-01T07:14:35.874Z,51.111294
2022-10-01T07:15:35.938Z,51.111301
2022-10-01T07:16:35.987Z,51.111294
2022-10-01T07:17:35.894Z,51.111301
2022-10-01T07:18:35.852Z,51.111290
2022-10-01T07:19:36.896Z,51.111286
2022-10-01T07:20:35.889Z,51.111282
2022-10-01T07:21:36.536Z,51.111416
2022-10-01T07:22:35.886Z,51.111351
2022-10-01T07:23:35.945Z,51.111324
2022-10-01T07:24:36.013Z,51.111271
2022-10-01T07:25:35.968Z,51.111256
2022-10-01T07:26:36.135Z,51.111282
2022-10-01T07:27:35.894Z,51.111305
2022-10-01T07:28:35.927Z,51.111263
2022-10-01T07:29:36.008Z,51.111252
2022-10-01T07:30:35.832Z,51.111286
2022-10-01T07:31:36.232Z,51.111290
2022-10-01T07:32:35.901Z,51.111225
2022-10-01T07:33:35.785Z,51.111267
2022-10-01T07:34:35.838Z,51.111271
2022-10-01T07:35:35.843Z,51.111294
2022-10-01T07:36:35.781Z,51.111282
2022-10-01T07:37:35.891Z,51.111267
2022-10-01T07:38:35.853Z,51.111259
2022-10-01T07:39:35.752Z,51.111237
2022-10-01T07:40:35.916Z,51.111233
2022-10-01T07:41:36.143Z,51.111286
2022-10-01T07:42:35.741Z,51.111320
2022-10-01T07:43:35.775Z,51.111275
2022-10-01T07:44:35.734Z,51.111282
2022-10-01T07:45:35.744Z,51.111282
2022-10-01T07:46:35.722Z,51.111263
2022-10-01T07:47:35.716Z,51.111248
2022-10-01T07:48:35.707Z,51.111263
2022-10-01T07:49:36.975Z,51.111286
2022-10-01T07:50:35.801Z,51.111317
2022-10-01T07:51:36.082Z,51.111271
2022-10-01T07:52:35.751Z,51.111328
2022-10-01T07:53:35.801Z,51.111320
2022-10-01T07:54:35.647Z,51.111267
2022-10-01T07:55:35.600Z,51.111263
2022-10-01T07:56:35.737Z,51.111305
2022-10-01T07:57:35.729Z,51.111259
2022-10-01T07:58:35.726Z,51.111267
2022-10-01T07:59:35.771Z,51.111320
2022-10-01T08:00:35.706Z,51.111374
2022-10-01T08:01:36.083Z,51.111401
2022-10-01T08:02:35.710Z,51.111298
2022-10-01T08:03:36.618Z,51.111320
2022-10-01T08:04:35.636Z,51.111359
2022-10-01T08:05:35.681Z,51.111374
2022-10-01T08:06:35.658Z,51.111282
2022-10-01T08:07:35.674Z,51.111408
2022-10-01T08:08:35.614Z,51.111423
2022-10-01T08:09:35.601Z,51.111301
2022-10-01T08:10:35.696Z,51.111282
2022-10-01T08:11:36.042Z,51.111275
2022-10-01T08:12:35.616Z,51.111275
2022-10-01T08:13:35.605Z,51.111263
2022-10-01T08:14:35.585Z,51.111294
2022-10-01T08:15:35.608Z,51.111282
2022-10-01T08:16:35.614Z,51.111290
2022-10-01T08:17:35.582Z,51.111290
2022-10-01T08:18:35.586Z,51.111275
2022-10-01T08:19:35.581Z,51.111301
2022-10-01T08:20:35.454Z,51.111214
2022-10-01T08:21:35.899Z,51.111206
2022-10-01T08:22:39.763Z,51.111267
2022-10-01T08:23:37.453Z,51.111206
2022-10-01T08:24:35.462Z,51.111237
2022-10-01T08:25:35.426Z,51.111317
2022-10-01T08:26:35.841Z,51.111389
2022-10-01T08:27:35.410Z,51.111336
2022-10-01T08:28:35.464Z,51.111332
2022-10-01T08:29:35.482Z,51.111313
2022-10-01T08:30:35.546Z,51.111301
2022-10-01T08:31:35.786Z,51.111298
2022-10-01T08:32:35.537Z,51.111267
2022-10-01T08:33:35.509Z,51.111332
2022-10-01T08:34:35.485Z,51.111340
2022-10-01T08:35:35.446Z,51.111290
2022-10-01T08:36:35.437Z,51.111271
2022-10-01T08:37:35.486Z,51.111244
2022-10-01T08:38:35.487Z,51.111256
2022-10-01T08:39:35.436Z,51.111347
2022-10-01T08:40:35.434Z,51.111309
2022-10-01T08:41:36.184Z,51.111256
2022-10-01T08:42:35.280Z,51.111256
2022-10-01T08:43:35.330Z,51.111229
2022-10-01T08:44:35.294Z,51.111221
2022-10-01T08:45:35.494Z,51.111103
2022-10-01T08:46:35.302Z,51.111221
2022-10-01T08:47:35.253Z,51.111210
2022-10-01T08:48:35.415Z,51.111229
2022-10-01T08:49:35.352Z,51.111214
2022-10-01T08:50:35.327Z,51.111263
2022-10-01T08:51:35.629Z,51.111214
2022-10-01T08:52:35.328Z,51.111259
2022-10-01T08:53:35.329Z,51.111202
2022-10-01T08:54:35.377Z,51.111179
2022-10-01T08:55:35.452Z,51.111275
2022-10-01T08:56:35.277Z,51.111282
2022-10-01T08:57:35.335Z,51.111340
2022-10-01T08:58:35.292Z,51.111267
2022-10-01T08:59:35.360Z,51.111141
2022-10-01T09:00:35.248Z,51.111240
2022-10-01T09:01:35.494Z,51.111263
2022-10-01T09:02:35.204Z,51.111252
2022-10-01T09:03:35.141Z,51.111237
2022-10-01T09:04:35.323Z,51.111256
2022-10-01T09:05:35.349Z,51.111217
2022-10-01T09:06:35.317Z,51.111214
2022-10-01T09:07:35.238Z,51.111237
2022-10-01T09:08:35.284Z,51.111290
2022-10-01T09:09:35.231Z,51.111301
2022-10-01T09:10:35.307Z,51.111221
2022-10-01T09:11:35.476Z,51.111115
2022-10-01T09:12:35.195Z,51.111225
2022-10-01T09:13:35.169Z,51.111259
2022-10-01T09:14:35.193Z,51.111156
2022-10-01T09:15:35.185Z,51.111137
2022-10-01T09:16:35.279Z,51.111179
2022-10-01T09:17:35.155Z,51.111206
2022-10-01T09:18:35.569Z,51.111225
2022-10-01T09:19:35.129Z,51.111172
2022-10-01T09:20:35.120Z,51.111172
2022-10-01T09:21:35.454Z,51.111141
2022-10-01T09:22:35.032Z,51.111168
2022-10-01T09:23:35.152Z,51.111126
2022-10-01T09:24:35.142Z,51.111279
2022-10-01T09:25:35.158Z,51.111359
2022-10-01T09:26:35.110Z,51.111275
2022-10-01T09:27:35.432Z,51.111252
2022-10-01T09:28:35.119Z,51.111240
2022-10-01T09:29:35.155Z,51.111233
2022-10-01T09:30:35.131Z,51.111233
2022-10-01T09:31:35.356Z,51.111202
2022-10-01T09:32:35.197Z,51.111164
2022-10-01T09:33:35.110Z,51.111164
2022-10-01T09:34:35.076Z,51.111156
2022-10-01T09:35:35.041Z,51.111164
2022-10-01T09:36:35.106Z,51.111237
2022-10-01T09:37:35.102Z,51.111217
2022-10-01T09:38:35.087Z,51.111221
2022-10-01T09:39:34.946Z,51.111237
2022-10-01T09:40:34.933Z,51.111217
2022-10-01T09:41:35.215Z,51.111191
2022-10-01T09:42:34.911Z,51.111240
2022-10-01T09:43:35.150Z,51.111256
2022-10-01T09:44:35.015Z,51.111244
2022-10-01T09:45:35.247Z,51.111252
2022-10-01T09:46:34.967Z,51.111214
2022-10-01T09:47:35.330Z,51.111233
2022-10-01T09:48:35.279Z,51.111198
2022-10-01T09:49:34.957Z,51.111229
2022-10-01T09:50:35.006Z,51.111217
2022-10-01T09:51:39.387Z,51.111176
2022-10-01T09:52:37.043Z,51.111179
2022-10-01T09:53:35.062Z,51.111153
2022-10-01T09:54:35.092Z,51.111206
2022-10-01T09:55:34.819Z,51.111233
2022-10-01T09:56:35.115Z,51.111237
2022-10-01T09:57:34.768Z,51.111229
2022-10-01T09:58:34.841Z,51.111191
2022-10-01T09:59:34.934Z,51.111229
2022-10-01T10:00:34.773Z,51.111229
2022-10-01T10:01:35.229Z,51.111244
2022-10-01T10:02:34.858Z,51.111244
2022-10-01T10:03:34.995Z,51.111237
2022-10-01T10:04:34.914Z,51.111271
2022-10-01T10:05:34.928Z,51.111279
2022-10-01T10:06:35.185Z,51.111282
2022-10-01T10:07:34.935Z,51.111267
2022-10-01T10:08:35.193Z,51.111320
2022-10-01T10:09:34.838Z,51.111305
2022-10-01T10:10:35.003Z,51.111252
2022-10-01T10:11:35.332Z,51.111229
2022-10-01T10:12:34.845Z,51.111214
2022-10-01T10:13:34.799Z,51.111202
2022-10-01T10:14:34.802Z,51.111244
2022-10-01T10:15:34.843Z,51.111256
2022-10-01T10:16:35.438Z,51.111263
2022-10-01T10:17:34.752Z,51.111252
2022-10-01T10:18:34.735Z,51.111191
2022-10-01T10:19:34.733Z,51.111206
2022-10-01T10:20:34.760Z,51.111233
2022-10-01T10:21:34.679Z,51.111233
2022-10-01T10:22:34.709Z,51.111252
2022-10-01T10:23:34.642Z,51.111256
2022-10-01T10:24:34.600Z,51.111256
2022-10-01T10:25:34.681Z,51.111244
2022-10-01T10:26:35.232Z,51.111233
2022-10-01T10:27:34.625Z,51.111256
2022-10-01T10:28:38.308Z,51.111248
2022-10-01T10:29:35.690Z,51.111279
2022-10-01T10:30:34.761Z,51.111290
2022-10-01T10:31:34.776Z,51.111282
2022-10-01T10:32:35.185Z,51.111305
2022-10-01T10:33:34.893Z,51.111309
2022-10-01T10:34:34.620Z,51.111298
2022-10-01T10:35:34.666Z,51.111290
2022-10-01T10:36:34.851Z,51.111294
2022-10-01T10:37:34.629Z,51.111282
2022-10-01T10:38:34.613Z,51.111271
2022-10-01T10:39:34.641Z,51.111244
2022-10-01T10:40:34.483Z,51.111275
2022-10-01T10:41:34.701Z,51.111279
2022-10-01T10:42:34.662Z,51.111286
2022-10-01T10:43:34.589Z,51.111282
2022-10-01T10:44:34.519Z,51.111286
2022-10-01T10:45:34.588Z,51.111244
2022-10-01T10:46:34.673Z,51.111229
2022-10-01T10:47:34.670Z,51.111240
2022-10-01T10:48:34.645Z,51.111248
2022-10-01T10:49:34.514Z,51.111252
2022-10-01T10:50:34.530Z,51.111237
2022-10-01T10:51:34.652Z,51.111198
2022-10-01T10:52:34.504Z,51.111233
2022-10-01T10:53:34.512Z,51.111244
2022-10-01T10:54:34.526Z,51.111259
2022-10-01T10:55:34.398Z,51.111267
2022-10-01T10:56:34.586Z,51.111263
2022-10-01T10:57:34.386Z,51.111233
2022-10-01T10:58:34.478Z,51.111248
2022-10-01T10:59:34.516Z,51.111263
2022-10-01T11:00:34.566Z,51.111252
2022-10-01T11:01:34.649Z,51.111271
2022-10-01T11:02:34.376Z,51.111263
2022-10-01T11:03:34.448Z,51.111248
2022-10-01T11:04:34.417Z,51.111256
2022-10-01T11:05:35.096Z,51.111252
2022-10-01T11:06:35.131Z,51.111279
2022-10-01T11:07:34.535Z,51.111305
2022-10-01T11:08:34.560Z,51.111286
2022-10-01T11:09:34.358Z,51.111271
2022-10-01T11:10:34.535Z,51.111221
2022-10-01T11:11:34.491Z,51.111263
2022-10-01T11:12:34.338Z,51.111271
2022-10-01T11:13:34.494Z,51.111248
2022-10-01T11:14:34.487Z,51.111248
2022-10-01T11:15:34.455Z,51.111263
2022-10-01T11:16:34.772Z,51.111271
2022-10-01T11:17:34.240Z,51.111248
2022-10-01T11:18:34.207Z,51.111214
2022-10-01T11:19:34.322Z,51.111252
2022-10-01T11:20:34.337Z,51.111263
2022-10-01T11:21:34.347Z,51.111282
2022-10-01T11:22:34.329Z,51.111313
2022-10-01T11:23:34.480Z,51.111290
2022-10-01T11:24:34.352Z,51.111282